createdAt,value
2018-12-26T00:01:50.656Z,40.40
2018-12-26T00:04:19.376Z,35.58
2018-12-26T00:06:47.762Z,36.87
2018-12-26T00:09:16.153Z,34.47
2018-12-26T00:11:44.553Z,34.88
2018-12-26T00:14:13.262Z,33.47
2018-12-26T00:16:41.648Z,35.73
2018-12-26T00:19:10.437Z,34.37
2018-12-26T00:21:38.827Z,35.55
2018-12-26T00:24:07.234Z,34.05
2018-12-26T00:26:35.874Z,37.25
2018-12-26T00:29:04.276Z,33.13
2018-12-26T00:31:32.752Z,35.87
2018-12-26T00:34:01.526Z,34.90
2018-12-26T00:36:29.923Z,34.95
2018-12-26T00:38:58.326Z,35.20
2018-12-26T00:41:26.728Z,37.03
2018-12-26T00:43:55.112Z,38.83
2018-12-26T00:46:23.925Z,38.42
2018-12-26T00:48:52.316Z,35.17
2018-12-26T00:51:20.728Z,35.55
2018-12-26T00:53:49.380Z,36.38
2018-12-26T00:56:18.065Z,36.45
2018-12-26T00:58:46.466Z,36.77
2018-12-26T01:01:14.880Z,33.75
2018-12-26T01:03:43.280Z,37.10
2018-12-26T01:06:11.996Z,37.13
2018-12-26T01:08:40.389Z,33.65
2018-12-26T01:11:08.799Z,39.05
2018-12-26T01:13:37.639Z,39.45
2018-12-26T01:16:06.026Z,34.37
2018-12-26T01:18:34.803Z,34.10
2018-12-26T01:21:03.495Z,31.93
2018-12-26T01:23:32.178Z,36.20
2018-12-26T01:26:00.581Z,33.38
2018-12-26T01:28:29.551Z,32.45
2018-12-26T01:30:57.944Z,36.42
2018-12-26T01:33:26.714Z,32.97
2018-12-26T01:35:56.134Z,34.43
2018-12-26T01:38:24.789Z,38.50
2018-12-26T01:40:53.593Z,31.55
2018-12-26T01:43:21.988Z,37.78
2018-12-26T01:45:50.384Z,34.70
2018-12-26T01:48:18.788Z,36.95
2018-12-26T01:50:47.529Z,32.88
2018-12-26T01:53:16.204Z,34.40
2018-12-26T01:55:44.604Z,33.73
2018-12-26T01:58:13.575Z,33.67
2018-12-26T02:00:41.973Z,32.65
2018-12-26T02:03:10.379Z,31.45
2018-12-26T02:05:38.767Z,35.10
2018-12-26T02:08:07.173Z,36.53
2018-12-26T02:10:35.565Z,32.45
2018-12-26T02:13:03.970Z,33.28
2018-12-26T02:15:32.739Z,35.20
2018-12-26T02:18:01.136Z,33.08
2018-12-26T02:20:30.527Z,33.48
2018-12-26T02:22:59.210Z,30.70
2018-12-26T02:25:28.107Z,34.27
2018-12-26T02:27:56.722Z,32.33
2018-12-26T02:30:25.122Z,31.37
2018-12-26T02:32:53.506Z,29.90
2018-12-26T02:35:22.227Z,32.90
2018-12-26T02:37:50.917Z,33.38
2018-12-26T02:40:19.310Z,29.87
2018-12-26T02:42:47.704Z,32.60
2018-12-26T02:45:16.106Z,30.62
2018-12-26T02:47:44.496Z,33.00
2018-12-26T02:50:13.329Z,31.50
2018-12-26T02:52:41.707Z,35.70
2018-12-26T02:55:10.095Z,33.97
2018-12-26T02:57:38.767Z,31.10
2018-12-26T03:00:08.816Z,32.30
2018-12-26T03:02:37.393Z,31.77
2018-12-26T03:05:06.646Z,32.05
2018-12-26T03:07:35.032Z,30.60
2018-12-26T03:10:04.246Z,31.50
2018-12-26T03:12:32.936Z,33.50
2018-12-26T03:15:01.416Z,31.90
2018-12-26T03:17:29.800Z,32.30
2018-12-26T03:19:58.784Z,35.13
2018-12-26T03:22:27.178Z,32.58
2018-12-26T03:24:55.586Z,34.33
2018-12-26T03:27:23.975Z,36.05
2018-12-26T03:29:52.711Z,32.95
2018-12-26T03:32:21.429Z,31.12
2018-12-26T03:34:50.091Z,33.45
2018-12-26T03:37:18.479Z,32.73
2018-12-26T03:39:47.250Z,35.03
2018-12-26T03:42:15.649Z,34.67
2018-12-26T03:44:45.030Z,31.37
2018-12-26T03:47:14.268Z,32.65
2018-12-26T03:49:42.933Z,33.53
2018-12-26T03:52:11.485Z,32.83
2018-12-26T03:54:39.881Z,37.10
2018-12-26T03:57:08.665Z,36.45
2018-12-26T03:59:37.351Z,31.65
2018-12-26T04:02:06.000Z,34.10
2018-12-26T04:04:34.383Z,35.17
2018-12-26T04:07:02.870Z,32.53
2018-12-26T04:09:31.397Z,34.83
2018-12-26T04:11:59.796Z,33.28
2018-12-26T04:14:28.476Z,37.10
2018-12-26T04:16:57.105Z,32.50
2018-12-26T04:19:25.510Z,33.90
2018-12-26T04:21:54.083Z,33.70
2018-12-26T04:24:22.843Z,34.03
2018-12-26T04:26:51.674Z,34.15
2018-12-26T04:29:20.083Z,33.92
2018-12-26T04:31:48.850Z,33.58
2018-12-26T04:34:17.513Z,32.60
2018-12-26T04:36:45.902Z,35.17
2018-12-26T04:39:14.693Z,32.75
2018-12-26T04:41:43.081Z,33.88
2018-12-26T04:44:11.855Z,36.83
2018-12-26T04:46:40.552Z,35.40
2018-12-26T04:49:08.964Z,34.85
2018-12-26T04:51:37.345Z,34.10
2018-12-26T04:54:05.749Z,33.95
2018-12-26T04:56:34.144Z,32.80
2018-12-26T04:59:02.553Z,35.50
2018-12-26T05:01:31.227Z,33.83
2018-12-26T05:03:59.642Z,32.88
2018-12-26T05:06:28.025Z,35.68
2018-12-26T05:08:56.428Z,33.60
2018-12-26T05:11:24.820Z,34.33
2018-12-26T05:13:53.229Z,33.05
2018-12-26T05:16:21.618Z,33.73
2018-12-26T05:18:50.027Z,33.40
2018-12-26T05:21:18.423Z,32.88
2018-12-26T05:23:46.815Z,34.23
2018-12-26T05:26:15.203Z,34.23
2018-12-26T05:28:43.610Z,34.98
2018-12-26T05:31:12.007Z,32.55
2018-12-26T05:33:40.398Z,33.35
2018-12-26T05:36:08.808Z,34.20
2018-12-26T05:38:37.190Z,34.90
2018-12-26T05:41:05.598Z,33.08
2018-12-26T05:43:33.989Z,31.30
2018-12-26T05:46:02.399Z,33.00
2018-12-26T05:48:30.795Z,31.50
2018-12-26T05:50:59.196Z,30.45
2018-12-26T05:53:27.589Z,32.28
2018-12-26T05:55:55.986Z,30.92
2018-12-26T05:58:24.377Z,31.82
2018-12-26T06:00:52.782Z,33.88
2018-12-26T06:03:21.194Z,32.95
2018-12-26T06:05:49.665Z,30.90
2018-12-26T06:08:18.159Z,31.95
2018-12-26T06:10:46.643Z,30.72
2018-12-26T06:13:15.053Z,32.53
2018-12-26T06:15:43.746Z,32.93
2018-12-26T06:18:12.293Z,31.03
2018-12-26T06:20:40.697Z,32.55
2018-12-26T06:23:09.095Z,30.15
2018-12-26T06:25:37.501Z,30.92
2018-12-26T06:28:05.890Z,30.55
2018-12-26T06:30:34.288Z,32.58
2018-12-26T06:33:02.673Z,31.07
2018-12-26T06:35:31.095Z,30.23
2018-12-26T06:38:01.488Z,32.05
2018-12-26T06:40:29.837Z,31.13
2018-12-26T06:42:58.319Z,32.00
2018-12-26T06:45:26.699Z,32.23
2018-12-26T06:47:57.990Z,31.37
2018-12-26T06:50:26.406Z,33.60
2018-12-26T06:52:54.812Z,31.62
2018-12-26T06:55:23.393Z,31.87
2018-12-26T06:57:59.844Z,34.57
2018-12-26T07:00:22.204Z,32.63
2018-12-26T07:02:50.915Z,29.92
2018-12-26T07:05:19.302Z,33.37
2018-12-26T07:07:47.910Z,30.73
2018-12-26T07:10:16.297Z,33.50
2018-12-26T07:12:45.069Z,30.60
2018-12-26T07:15:13.454Z,34.20
2018-12-26T07:17:42.005Z,30.03
2018-12-26T07:20:10.690Z,29.90
2018-12-26T07:22:39.076Z,29.97
2018-12-26T07:25:07.856Z,31.97
2018-12-26T07:27:36.249Z,31.13
2018-12-26T07:30:06.418Z,33.23
2018-12-26T07:32:34.787Z,32.77
2018-12-26T07:35:03.445Z,32.90
2018-12-26T07:37:31.836Z,30.60
2018-12-26T07:40:00.226Z,31.20
2018-12-26T07:42:28.617Z,32.03
2018-12-26T07:44:57.012Z,30.67
2018-12-26T07:47:25.394Z,29.83
2018-12-26T07:49:53.788Z,29.70
2018-12-26T07:52:23.166Z,31.93
2018-12-26T07:54:51.885Z,33.97
2018-12-26T07:57:20.272Z,31.67
2018-12-26T07:59:48.660Z,30.30
2018-12-26T08:02:17.347Z,33.33
2018-12-26T08:04:45.735Z,31.23
2018-12-26T08:07:14.490Z,31.57
2018-12-26T08:09:42.869Z,28.83
2018-12-26T08:12:11.273Z,31.77
2018-12-26T08:14:39.664Z,36.27
2018-12-26T08:17:08.108Z,31.80
2018-12-26T08:19:36.898Z,33.78
2018-12-26T08:22:05.605Z,31.52
2018-12-26T08:24:33.984Z,31.73
2018-12-26T08:27:02.617Z,32.20
2018-12-26T08:29:31.256Z,31.03
2018-12-26T08:31:59.653Z,31.53
2018-12-26T08:34:28.099Z,31.57
2018-12-26T08:36:56.503Z,28.80
2018-12-26T08:39:25.183Z,31.20
2018-12-26T08:41:53.670Z,29.30
2018-12-26T08:44:22.311Z,32.80
2018-12-26T08:46:50.718Z,29.42
2018-12-26T08:49:19.116Z,33.83
2018-12-26T08:51:47.757Z,27.00
2018-12-26T08:54:16.150Z,30.77
2018-12-26T08:56:44.776Z,30.97
2018-12-26T08:59:13.418Z,27.97
2018-12-26T09:01:42.111Z,28.60
2018-12-26T09:04:11.023Z,34.63
2018-12-26T09:06:39.906Z,28.40
2018-12-26T09:09:08.299Z,28.87
2018-12-26T09:11:36.871Z,29.53
2018-12-26T09:14:05.271Z,31.70
2018-12-26T09:16:33.656Z,32.23
2018-12-26T09:19:02.291Z,34.10
2018-12-26T09:21:30.679Z,31.90
2018-12-26T09:23:59.072Z,30.23
2018-12-26T09:26:27.450Z,28.80
2018-12-26T09:28:55.842Z,31.00
2018-12-26T09:31:24.701Z,32.37
2018-12-26T09:33:53.161Z,28.17
2018-12-26T09:36:21.577Z,30.73
2018-12-26T09:38:49.971Z,30.00
2018-12-26T09:41:18.363Z,28.63
2018-12-26T09:43:46.761Z,28.73
2018-12-26T09:46:15.145Z,30.00
2018-12-26T09:48:43.678Z,28.47
2018-12-26T09:51:12.097Z,27.70
2018-12-26T09:53:40.602Z,28.90
2018-12-26T09:56:08.986Z,26.90
2018-12-26T09:58:37.783Z,26.67
2018-12-26T10:01:06.177Z,26.97
2018-12-26T10:03:34.572Z,25.20
2018-12-26T10:06:02.962Z,24.10
2018-12-26T10:08:31.351Z,26.53
2018-12-26T10:10:59.741Z,25.13
2018-12-26T10:13:28.131Z,24.33
2018-12-26T10:15:56.522Z,22.90
2018-12-26T10:18:25.256Z,27.90
2018-12-26T10:20:53.647Z,24.00
2018-12-26T10:23:22.399Z,24.87
2018-12-26T10:25:50.862Z,20.90
2018-12-26T10:28:19.563Z,20.20
2018-12-26T10:30:48.248Z,20.53
2018-12-26T10:33:16.677Z,20.90
2018-12-26T10:35:45.303Z,19.60
2018-12-26T10:38:14.102Z,21.47
2018-12-26T10:40:42.500Z,20.93
2018-12-26T10:43:10.887Z,21.13
2018-12-26T10:45:39.280Z,19.87
2018-12-26T10:48:07.670Z,22.03
2018-12-26T10:50:36.069Z,21.33
2018-12-26T10:53:04.453Z,22.17
2018-12-26T10:55:32.848Z,20.70
2018-12-26T10:58:01.245Z,22.00
2018-12-26T11:00:30.033Z,21.97
2018-12-26T11:02:58.416Z,21.33
2018-12-26T11:05:29.657Z,21.50
2018-12-26T11:07:56.925Z,23.00
2018-12-26T11:10:25.320Z,22.00
2018-12-26T11:12:53.711Z,22.17
2018-12-26T11:15:22.128Z,20.50
2018-12-26T11:17:52.855Z,21.50
2018-12-26T11:20:21.968Z,20.33
2018-12-26T11:22:50.686Z,20.63
2018-12-26T11:25:19.760Z,20.47
2018-12-26T11:27:48.150Z,21.83
2018-12-26T11:30:16.776Z,20.80
2018-12-26T11:32:45.318Z,20.77
2018-12-26T11:35:14.092Z,21.60
2018-12-26T11:37:42.555Z,21.07
2018-12-26T11:40:11.522Z,21.00
2018-12-26T11:42:39.978Z,22.73
2018-12-26T11:45:09.269Z,21.60
2018-12-26T11:47:37.650Z,20.93
2018-12-26T11:50:08.212Z,22.33
2018-12-26T11:52:36.942Z,21.13
2018-12-26T11:55:06.168Z,19.50
2018-12-26T11:57:36.851Z,20.77
2018-12-26T12:00:06.837Z,20.47
2018-12-26T12:02:35.232Z,19.23
2018-12-26T12:05:04.182Z,19.27
2018-12-26T12:07:32.950Z,17.87
2018-12-26T12:10:01.633Z,19.70
2018-12-26T12:12:30.097Z,19.20
2018-12-26T12:14:58.775Z,21.03
2018-12-26T12:17:27.486Z,18.23
2018-12-26T12:19:56.177Z,18.23
2018-12-26T12:22:24.778Z,19.20
2018-12-26T12:24:53.163Z,18.30
2018-12-26T12:27:22.488Z,20.00
2018-12-26T12:29:51.118Z,18.47
2018-12-26T12:32:19.513Z,18.27
2018-12-26T12:34:48.290Z,18.70
2018-12-26T12:37:16.975Z,19.87
2018-12-26T12:39:45.663Z,18.83
2018-12-26T12:42:14.432Z,19.47
2018-12-26T12:44:42.822Z,17.50
2018-12-26T12:47:11.229Z,18.63
2018-12-26T12:49:39.623Z,18.33
2018-12-26T12:52:08.285Z,20.60
2018-12-26T12:54:36.669Z,20.40
2018-12-26T12:57:05.439Z,18.17
2018-12-26T12:59:34.333Z,19.30
2018-12-26T13:02:02.729Z,18.83
2018-12-26T13:04:31.276Z,19.67
2018-12-26T13:06:59.688Z,18.43
2018-12-26T13:09:28.062Z,18.67
2018-12-26T13:11:56.547Z,17.23
2018-12-26T13:14:24.945Z,17.57
2018-12-26T13:16:53.335Z,17.40
2018-12-26T13:19:21.980Z,18.20
2018-12-26T13:21:50.665Z,16.77
2018-12-26T13:24:19.176Z,16.77
2018-12-26T13:26:47.547Z,17.90
2018-12-26T13:29:15.949Z,16.40
2018-12-26T13:31:44.329Z,15.90
2018-12-26T13:34:13.075Z,16.40
2018-12-26T13:36:41.481Z,16.60
2018-12-26T13:39:10.234Z,15.47
2018-12-26T13:41:38.628Z,16.40
2018-12-26T13:44:07.014Z,17.27
2018-12-26T13:46:35.680Z,19.10
2018-12-26T13:49:04.071Z,17.93
2018-12-26T13:51:32.455Z,17.67
2018-12-26T13:54:00.858Z,17.30
2018-12-26T13:56:29.610Z,17.83
2018-12-26T13:58:58.291Z,16.90
2018-12-26T14:01:26.670Z,16.33
2018-12-26T14:03:55.074Z,16.67
2018-12-26T14:06:23.736Z,16.67
2018-12-26T14:08:52.434Z,17.53
2018-12-26T14:11:20.935Z,17.80
2018-12-26T14:13:49.325Z,17.00
2018-12-26T14:16:18.079Z,18.17
2018-12-26T14:18:46.459Z,18.80
2018-12-26T14:21:14.859Z,19.30
2018-12-26T14:23:43.509Z,19.70
2018-12-26T14:26:11.900Z,18.93
2018-12-26T14:28:40.388Z,19.93
2018-12-26T14:31:09.168Z,19.70
2018-12-26T14:33:37.891Z,19.80
2018-12-26T14:36:06.456Z,20.27
2018-12-26T14:38:34.833Z,19.60
2018-12-26T14:41:03.225Z,20.27
2018-12-26T14:43:32.068Z,21.30
2018-12-26T14:46:00.451Z,20.30
2018-12-26T14:48:28.827Z,19.30
2018-12-26T14:50:57.423Z,20.00
2018-12-26T14:53:25.807Z,19.30
2018-12-26T14:55:54.593Z,20.50
2018-12-26T14:58:23.285Z,20.30
2018-12-26T15:00:51.664Z,21.00
2018-12-26T15:03:20.556Z,20.13
2018-12-26T15:05:48.915Z,21.07
2018-12-26T15:08:17.309Z,20.03
2018-12-26T15:10:46.165Z,21.77
2018-12-26T15:13:15.097Z,21.23
2018-12-26T15:15:44.079Z,21.20
2018-12-26T15:18:12.512Z,20.87
2018-12-26T15:20:41.248Z,20.50
2018-12-26T15:23:09.933Z,21.60
2018-12-26T15:25:38.314Z,21.80
2018-12-26T15:28:07.105Z,24.00
2018-12-26T15:30:35.790Z,20.93
2018-12-26T15:33:04.180Z,23.67
2018-12-26T15:35:32.571Z,23.53
2018-12-26T15:38:00.954Z,22.80
2018-12-26T15:40:29.724Z,22.80
2018-12-26T15:42:58.122Z,22.00
2018-12-26T15:45:26.878Z,22.43
2018-12-26T15:47:55.978Z,22.70
2018-12-26T15:50:24.360Z,22.43
2018-12-26T15:52:52.753Z,24.43
2018-12-26T15:55:21.418Z,23.63
2018-12-26T15:57:49.811Z,24.80
2018-12-26T16:00:18.213Z,25.27
2018-12-26T16:02:46.617Z,23.83
2018-12-26T16:05:15.156Z,24.50
2018-12-26T16:07:43.543Z,24.73
2018-12-26T16:10:11.933Z,26.83
2018-12-26T16:12:40.583Z,25.70
2018-12-26T16:15:09.537Z,25.20
2018-12-26T16:17:37.930Z,25.23
2018-12-26T16:20:08.902Z,27.50
2018-12-26T16:22:37.288Z,26.30
2018-12-26T16:25:08.025Z,26.20
2018-12-26T16:27:36.798Z,26.80
2018-12-26T16:30:07.837Z,25.10
2018-12-26T16:32:36.220Z,28.93
2018-12-26T16:35:05.698Z,25.73
2018-12-26T16:37:34.089Z,29.00
2018-12-26T16:40:02.891Z,26.80
2018-12-26T16:42:31.278Z,25.90
2018-12-26T16:44:59.672Z,26.27
2018-12-26T16:47:28.342Z,25.27
2018-12-26T16:49:56.742Z,25.23
2018-12-26T16:52:25.166Z,26.50
2018-12-26T16:54:53.986Z,26.97
2018-12-26T16:57:22.670Z,26.03
2018-12-26T16:59:51.065Z,27.00
2018-12-26T17:02:19.456Z,27.27
2018-12-26T17:04:47.845Z,27.53
2018-12-26T17:07:16.232Z,31.53
2018-12-26T17:09:44.612Z,30.13
2018-12-26T17:12:13.004Z,36.00
2018-12-26T17:14:41.626Z,30.53
2018-12-26T17:17:10.030Z,29.97
2018-12-26T17:19:38.794Z,30.30
2018-12-26T17:22:07.486Z,29.50
2018-12-26T17:24:35.870Z,27.63
2018-12-26T17:27:04.681Z,27.10
2018-12-26T17:29:33.337Z,27.40
2018-12-26T17:32:01.942Z,30.20
2018-12-26T17:34:30.622Z,33.93
2018-12-26T17:36:59.391Z,27.63
2018-12-26T17:39:28.095Z,30.27
2018-12-26T17:41:56.489Z,28.23
2018-12-26T17:44:24.877Z,28.63
2018-12-26T17:46:53.274Z,28.17
2018-12-26T17:49:21.662Z,25.73
2018-12-26T17:51:50.053Z,26.57
2018-12-26T17:54:21.488Z,24.60
2018-12-26T17:56:52.726Z,24.13
2018-12-26T17:59:32.935Z,23.33
2018-12-26T18:02:04.699Z,24.13
2018-12-26T18:04:33.079Z,24.90
2018-12-26T18:07:01.581Z,24.30
2018-12-26T18:09:29.976Z,24.30
2018-12-26T18:12:11.217Z,24.50
2018-12-26T18:14:28.614Z,24.77
2018-12-26T18:16:58.341Z,25.20
2018-12-26T18:19:26.740Z,24.37
2018-12-26T18:21:55.115Z,25.20
2018-12-26T18:24:23.584Z,23.63
2018-12-26T18:26:52.424Z,26.20
2018-12-26T18:29:20.882Z,25.80
2018-12-26T18:31:49.275Z,26.03
2018-12-26T18:34:17.743Z,24.53
2018-12-26T18:36:46.153Z,24.83
2018-12-26T18:39:15.430Z,25.83
2018-12-26T18:41:44.102Z,27.07
2018-12-26T18:44:12.489Z,24.20
2018-12-26T18:46:40.869Z,23.50
2018-12-26T18:49:10.529Z,25.00
2018-12-26T18:51:38.945Z,24.30
2018-12-26T18:54:07.329Z,24.80
2018-12-26T18:56:35.826Z,24.43
2018-12-26T18:59:04.223Z,24.00
2018-12-26T19:01:32.602Z,26.27
2018-12-26T19:04:00.996Z,24.97
2018-12-26T19:06:29.379Z,23.67
2018-12-26T19:08:58.068Z,23.00
2018-12-26T19:11:26.681Z,23.10
2018-12-26T19:13:55.584Z,21.67
2018-12-26T19:16:24.005Z,22.23
2018-12-26T19:18:52.396Z,20.80
2018-12-26T19:21:20.791Z,21.90
2018-12-26T19:23:49.504Z,20.87
2018-12-26T19:26:17.937Z,21.10
2018-12-26T19:28:46.346Z,20.10
2018-12-26T19:31:14.766Z,20.90
2018-12-26T19:33:43.425Z,20.93
2018-12-26T19:36:11.834Z,23.40
2018-12-26T19:38:42.422Z,22.30
2018-12-26T19:41:10.817Z,23.23
2018-12-26T19:43:39.203Z,23.93
2018-12-26T19:46:07.598Z,21.77
2018-12-26T19:48:35.989Z,22.53
2018-12-26T19:51:04.382Z,21.30
2018-12-26T19:53:32.843Z,22.37
2018-12-26T19:56:01.305Z,23.23
2018-12-26T19:58:29.694Z,24.73
2018-12-26T20:00:58.090Z,21.90
2018-12-26T20:03:26.475Z,21.93
2018-12-26T20:05:54.889Z,21.40
2018-12-26T20:08:23.322Z,22.30
2018-12-26T20:10:51.713Z,22.13
2018-12-26T20:13:20.118Z,25.37
2018-12-26T20:15:48.540Z,26.37
2018-12-26T20:18:17.084Z,23.20
2018-12-26T20:20:45.634Z,20.60
2018-12-26T20:23:14.012Z,22.10
2018-12-26T20:25:42.409Z,21.83
2018-12-26T20:28:11.874Z,23.87
2018-12-26T20:30:40.339Z,28.90
2018-12-26T20:33:08.840Z,25.13
2018-12-26T20:35:37.286Z,23.77
2018-12-26T20:38:05.689Z,21.93
2018-12-26T20:40:34.053Z,21.60
2018-12-26T20:43:02.455Z,21.17
2018-12-26T20:45:30.936Z,20.17
2018-12-26T20:47:59.413Z,22.60
2018-12-26T20:50:28.201Z,20.13
2018-12-26T20:52:56.591Z,19.10
2018-12-26T20:55:24.982Z,19.37
2018-12-26T20:57:53.477Z,19.53
2018-12-26T21:00:21.870Z,20.23
2018-12-26T21:02:50.267Z,21.37
2018-12-26T21:05:18.648Z,18.20
2018-12-26T21:07:47.211Z,21.23
2018-12-26T21:10:15.691Z,21.10
2018-12-26T21:12:44.080Z,21.63
2018-12-26T21:15:12.520Z,22.07
2018-12-26T21:17:40.921Z,20.77
2018-12-26T21:20:09.447Z,20.83
2018-12-26T21:22:38.921Z,20.60
2018-12-26T21:25:07.991Z,18.60
2018-12-26T21:27:36.635Z,19.60
2018-12-26T21:30:08.076Z,20.17
2018-12-26T21:32:36.453Z,19.67
2018-12-26T21:35:05.970Z,19.60
2018-12-26T21:37:34.631Z,18.57
2018-12-26T21:40:03.340Z,19.37
2018-12-26T21:42:31.723Z,18.60
2018-12-26T21:45:00.183Z,18.43
2018-12-26T21:47:28.500Z,19.33
2018-12-26T21:49:56.896Z,21.27
2018-12-26T21:52:25.437Z,18.70
2018-12-26T21:54:54.156Z,19.53
2018-12-26T21:57:22.540Z,21.77
2018-12-26T21:59:51.321Z,20.03
2018-12-26T22:02:22.520Z,20.23
2018-12-26T22:04:50.333Z,19.83
2018-12-26T22:07:18.731Z,20.93
2018-12-26T22:09:47.416Z,19.77
2018-12-26T22:12:16.277Z,19.17
2018-12-26T22:14:44.680Z,19.93
2018-12-26T22:17:13.065Z,19.17
2018-12-26T22:19:41.453Z,19.70
2018-12-26T22:22:10.091Z,19.40
2018-12-26T22:24:38.794Z,21.97
2018-12-26T22:27:07.179Z,20.50
2018-12-26T22:29:35.562Z,20.07
2018-12-26T22:32:04.026Z,19.77
2018-12-26T22:34:32.402Z,19.43
2018-12-26T22:37:00.828Z,20.53
2018-12-26T22:39:29.686Z,20.20
2018-12-26T22:41:58.085Z,20.20
2018-12-26T22:44:27.889Z,21.20
2018-12-26T22:46:56.974Z,19.50
2018-12-26T22:49:25.667Z,19.80
2018-12-26T22:51:54.343Z,20.40
2018-12-26T22:54:22.940Z,20.73
2018-12-26T22:56:51.723Z,20.70
2018-12-26T22:59:20.474Z,19.83
2018-12-26T23:01:49.086Z,19.30
2018-12-26T23:04:17.478Z,18.27
2018-12-26T23:06:46.259Z,19.20
2018-12-26T23:09:14.646Z,19.60
2018-12-26T23:11:43.037Z,19.30
2018-12-26T23:14:11.420Z,19.10
2018-12-26T23:16:39.816Z,19.87
2018-12-26T23:19:08.205Z,19.60
2018-12-26T23:21:36.598Z,18.80
2018-12-26T23:24:05.420Z,19.20
2018-12-26T23:26:34.311Z,19.43
2018-12-26T23:29:03.409Z,19.07
2018-12-26T23:31:31.807Z,21.33
2018-12-26T23:34:00.196Z,19.07
2018-12-26T23:36:28.587Z,18.63
2018-12-26T23:38:56.970Z,19.10
2018-12-26T23:41:25.607Z,17.87
2018-12-26T23:43:54.300Z,17.40
2018-12-26T23:46:22.904Z,18.60
2018-12-26T23:48:51.293Z,17.17
2018-12-26T23:51:19.948Z,16.60
2018-12-26T23:53:48.332Z,18.10
2018-12-26T23:56:16.975Z,17.50
2018-12-26T23:58:46.484Z,17.80
